COS weather

City of Colorado Springs Municipal Airport
Colorado Springs, Colorado, United States

Public forecast

Using degrees Fahrenheit for public forecast. Weather courtesy of forecast.io.

METAR (pilot weather report)

Retrieved 2019/04/19 22:54 UTC (57 minutes ago):

KCOS 192254Z VRB03KT 10SM FEW120 21/M03 A3011 RMK AO2 SLP157 T02061033

TAF (pilot weather forecast)

Retrieved 2019/04/19 18:30 UTC (5 hours ago):

TAF KCOS 191729Z 1918/2018 15007KT P6SM SKC FM200200 14005KT P6SM FEW090 FM200700 01006KT P6SM FEW200 FM201300 VRB04KT P6SM SKC